createdAt,value
2019-04-26T00:00:24.039Z,20.93
2019-04-26T00:01:24.023Z,20.97
2019-04-26T00:02:24.016Z,20.88
2019-04-26T00:03:24.030Z,20.96
2019-04-26T00:04:23.993Z,20.90
2019-04-26T00:05:33.857Z,20.90
2019-04-26T00:06:24.969Z,20.85
2019-04-26T00:07:23.959Z,20.90
2019-04-26T00:08:23.953Z,20.94
2019-04-26T00:09:23.949Z,20.81
2019-04-26T00:10:23.928Z,20.83
2019-04-26T00:11:23.920Z,20.83
2019-04-26T00:12:23.909Z,20.87
2019-04-26T00:13:23.895Z,20.76
2019-04-26T00:14:23.893Z,20.75
2019-04-26T00:15:23.875Z,20.79
2019-04-26T00:16:23.864Z,20.79
2019-04-26T00:17:23.856Z,20.76
2019-04-26T00:18:23.841Z,20.78
2019-04-26T00:19:23.841Z,20.81
2019-04-26T00:20:23.819Z,20.75
2019-04-26T00:21:23.810Z,20.81
2019-04-26T00:22:23.802Z,20.78
2019-04-26T00:23:23.786Z,20.88
2019-04-26T00:24:23.788Z,20.76
2019-04-26T00:25:23.765Z,20.75
2019-04-26T00:26:23.760Z,20.79
2019-04-26T00:27:23.745Z,20.75
2019-04-26T00:28:23.733Z,20.72
2019-04-26T00:29:23.736Z,20.79
2019-04-26T00:30:23.712Z,20.81
2019-04-26T00:31:23.716Z,20.73
2019-04-26T00:32:23.695Z,20.72
2019-04-26T00:33:23.682Z,20.75
2019-04-26T00:34:23.681Z,20.78
2019-04-26T00:35:23.664Z,20.73
2019-04-26T00:36:23.659Z,20.69
2019-04-26T00:37:23.645Z,20.69
2019-04-26T00:38:23.628Z,20.73
2019-04-26T00:39:25.002Z,20.75
2019-04-26T00:40:23.631Z,20.81
2019-04-26T00:41:23.596Z,20.75
2019-04-26T00:42:23.584Z,20.75
2019-04-26T00:43:23.572Z,20.75
2019-04-26T00:44:23.586Z,20.68
2019-04-26T00:45:23.552Z,20.57
2019-04-26T00:46:23.542Z,20.72
2019-04-26T00:47:23.531Z,20.63
2019-04-26T00:48:23.521Z,20.57
2019-04-26T00:49:23.512Z,20.64
2019-04-26T00:50:23.513Z,20.69
2019-04-26T00:51:23.556Z,20.61
2019-04-26T00:52:23.711Z,20.56
2019-04-26T00:53:23.875Z,20.60
2019-04-26T00:54:24.355Z,20.57
2019-04-26T00:55:23.967Z,20.66
2019-04-26T00:56:24.559Z,20.53
2019-04-26T00:57:24.441Z,20.61
2019-04-26T00:58:24.409Z,20.60
2019-04-26T00:59:23.402Z,20.60
2019-04-26T01:00:23.609Z,20.53
2019-04-26T01:01:23.386Z,20.51
2019-04-26T01:02:23.373Z,20.53
2019-04-26T01:03:23.359Z,20.42
2019-04-26T01:04:23.348Z,20.48
2019-04-26T01:05:23.350Z,20.44
2019-04-26T01:06:23.328Z,20.46
2019-04-26T01:07:23.356Z,20.46
2019-04-26T01:08:23.517Z,20.38
2019-04-26T01:09:23.721Z,20.37
2019-04-26T01:10:23.716Z,20.41
2019-04-26T01:11:23.909Z,20.41
2019-04-26T01:12:23.926Z,20.34
2019-04-26T01:13:24.080Z,20.34
2019-04-26T01:14:24.179Z,20.30
2019-04-26T01:15:24.385Z,20.33
2019-04-26T01:16:24.276Z,20.30
2019-04-26T01:17:23.209Z,20.35
2019-04-26T01:18:24.366Z,20.37
2019-04-26T01:19:23.189Z,20.35
2019-04-26T01:20:23.189Z,20.33
2019-04-26T01:21:23.167Z,20.27
2019-04-26T01:22:23.379Z,20.23
2019-04-26T01:23:23.148Z,20.27
2019-04-26T01:24:23.229Z,20.22
2019-04-26T01:25:23.213Z,20.17
2019-04-26T01:26:23.269Z,20.25
2019-04-26T01:27:23.355Z,20.20
2019-04-26T01:28:23.391Z,20.25
2019-04-26T01:29:23.741Z,20.19
2019-04-26T01:30:23.815Z,20.16
2019-04-26T01:31:23.897Z,20.12
2019-04-26T01:32:24.049Z,20.20
2019-04-26T01:33:24.058Z,20.16
2019-04-26T01:34:24.154Z,20.19
2019-04-26T01:35:24.163Z,20.15
2019-04-26T01:36:23.011Z,20.02
2019-04-26T01:37:22.999Z,20.02
2019-04-26T01:38:23.684Z,20.07
2019-04-26T01:39:23.708Z,20.08
2019-04-26T01:40:24.051Z,20.05
2019-04-26T01:41:24.044Z,20.07
2019-04-26T01:42:22.950Z,20.05
2019-04-26T01:43:22.931Z,19.92
2019-04-26T01:44:22.923Z,19.92
2019-04-26T01:45:23.626Z,19.92
2019-04-26T01:46:23.242Z,19.98
2019-04-26T01:47:22.889Z,19.94
2019-04-26T01:48:23.045Z,19.90
2019-04-26T01:49:22.868Z,20.00
2019-04-26T01:50:23.567Z,20.02
2019-04-26T01:51:22.878Z,19.94
2019-04-26T01:52:23.979Z,19.90
2019-04-26T01:53:22.829Z,19.89
2019-04-26T01:54:24.088Z,19.98
2019-04-26T01:55:23.020Z,19.95
2019-04-26T01:56:23.518Z,19.97
2019-04-26T01:57:23.726Z,20.00
2019-04-26T01:58:23.275Z,19.95
2019-04-26T01:59:23.667Z,20.04
2019-04-26T02:00:23.876Z,20.00
2019-04-26T02:01:23.653Z,19.92
2019-04-26T02:02:23.688Z,19.89
2019-04-26T02:03:23.863Z,19.89
2019-04-26T02:04:23.922Z,19.95
2019-04-26T02:05:23.965Z,19.92
2019-04-26T02:06:29.188Z,19.92
2019-04-26T02:07:24.123Z,19.94
2019-04-26T02:08:23.414Z,19.87
2019-04-26T02:09:23.005Z,19.94
2019-04-26T02:10:24.009Z,19.92
2019-04-26T02:11:24.081Z,19.90
2019-04-26T02:12:23.827Z,19.90
2019-04-26T02:13:23.616Z,19.87
2019-04-26T02:14:23.771Z,19.89
2019-04-26T02:15:23.017Z,19.90
2019-04-26T02:16:23.614Z,19.92
2019-04-26T02:17:22.976Z,19.85
2019-04-26T02:18:23.951Z,19.82
2019-04-26T02:19:23.316Z,19.90
2019-04-26T02:20:23.222Z,19.86
2019-04-26T02:21:23.589Z,19.90
2019-04-26T02:22:24.392Z,19.86
2019-04-26T02:23:22.500Z,19.87
2019-04-26T02:24:22.489Z,19.89
2019-04-26T02:25:22.484Z,19.89
2019-04-26T02:26:22.472Z,19.79
2019-04-26T02:27:22.470Z,19.89
2019-04-26T02:28:22.446Z,19.86
2019-04-26T02:29:22.438Z,19.86
2019-04-26T02:30:22.428Z,19.90
2019-04-26T02:31:22.426Z,19.89
2019-04-26T02:32:22.420Z,19.80
2019-04-26T02:33:22.395Z,19.85
2019-04-26T02:34:22.387Z,19.80
2019-04-26T02:35:22.374Z,19.79
2019-04-26T02:36:22.361Z,19.80
2019-04-26T02:37:22.358Z,19.86
2019-04-26T02:38:22.344Z,19.76
2019-04-26T02:39:22.368Z,19.76
2019-04-26T02:40:22.348Z,19.71
2019-04-26T02:41:22.307Z,19.76
2019-04-26T02:42:22.307Z,19.80
2019-04-26T02:43:22.291Z,19.80
2019-04-26T02:44:22.389Z,19.76
2019-04-26T02:45:22.265Z,19.76
2019-04-26T02:46:22.262Z,19.78
2019-04-26T02:47:22.260Z,19.68
2019-04-26T02:48:22.232Z,19.71
2019-04-26T02:49:22.224Z,19.76
2019-04-26T02:50:22.215Z,19.78
2019-04-26T02:51:22.202Z,19.65
2019-04-26T02:52:22.209Z,19.61
2019-04-26T02:53:22.179Z,19.65
2019-04-26T02:54:22.176Z,19.65
2019-04-26T02:55:22.156Z,19.55
2019-04-26T02:56:22.147Z,19.68
2019-04-26T02:57:22.152Z,19.62
2019-04-26T02:58:22.123Z,19.55
2019-04-26T02:59:22.116Z,19.67
2019-04-26T03:00:22.111Z,19.55
2019-04-26T03:01:22.092Z,19.64
2019-04-26T03:02:22.081Z,19.55
2019-04-26T03:03:22.083Z,19.61
2019-04-26T03:04:22.060Z,19.57
2019-04-26T03:05:22.060Z,19.50
2019-04-26T03:06:22.040Z,19.50
2019-04-26T03:07:22.029Z,19.53
2019-04-26T03:08:22.039Z,19.47
2019-04-26T03:09:22.015Z,19.43
2019-04-26T03:10:21.996Z,19.43
2019-04-26T03:11:21.987Z,19.43
2019-04-26T03:12:21.981Z,19.47
2019-04-26T03:13:21.974Z,19.43
2019-04-26T03:14:21.952Z,19.40
2019-04-26T03:15:21.942Z,19.45
2019-04-26T03:16:21.934Z,19.39
2019-04-26T03:17:21.920Z,19.43
2019-04-26T03:18:21.923Z,19.43
2019-04-26T03:19:21.899Z,19.40
2019-04-26T03:20:21.987Z,19.31
2019-04-26T03:21:21.877Z,19.30
2019-04-26T03:22:21.866Z,19.39
2019-04-26T03:23:21.866Z,19.35
2019-04-26T03:24:21.844Z,19.31
2019-04-26T03:25:21.836Z,19.30
2019-04-26T03:26:21.824Z,19.31
2019-04-26T03:27:21.811Z,19.32
2019-04-26T03:28:21.812Z,19.30
2019-04-26T03:29:21.797Z,19.34
2019-04-26T03:30:23.401Z,19.38
2019-04-26T03:31:21.782Z,19.35
2019-04-26T03:32:21.762Z,19.27
2019-04-26T03:33:21.822Z,19.38
2019-04-26T03:34:21.933Z,19.38
2019-04-26T03:35:21.730Z,19.40
2019-04-26T03:36:21.715Z,19.23
2019-04-26T03:37:21.972Z,19.31
2019-04-26T03:38:21.705Z,19.34
2019-04-26T03:39:21.685Z,19.30
2019-04-26T03:40:21.671Z,19.24
2019-04-26T03:41:21.665Z,19.32
2019-04-26T03:42:21.661Z,19.34
2019-04-26T03:43:21.668Z,19.28
2019-04-26T03:44:21.659Z,19.28
2019-04-26T03:45:21.620Z,19.30
2019-04-26T03:46:21.610Z,19.24
2019-04-26T03:47:21.598Z,19.34
2019-04-26T03:48:21.590Z,19.27
2019-04-26T03:49:21.594Z,19.31
2019-04-26T03:50:21.577Z,19.28
2019-04-26T03:51:21.569Z,19.21
2019-04-26T03:52:21.543Z,19.27
2019-04-26T03:53:21.533Z,19.28
2019-04-26T03:54:21.534Z,19.39
2019-04-26T03:55:21.512Z,19.23
2019-04-26T03:56:21.503Z,19.32
2019-04-26T03:57:21.499Z,19.30
2019-04-26T03:58:21.482Z,19.27
2019-04-26T03:59:21.481Z,19.28
2019-04-26T04:00:21.459Z,19.21
2019-04-26T04:01:21.447Z,19.30
2019-04-26T04:02:21.448Z,19.21
2019-04-26T04:03:21.429Z,19.17
2019-04-26T04:04:21.428Z,19.25
2019-04-26T04:05:21.409Z,19.23
2019-04-26T04:06:21.403Z,19.27
2019-04-26T04:07:36.215Z,19.23
2019-04-26T04:08:22.368Z,19.21
2019-04-26T04:09:21.376Z,19.28
2019-04-26T04:10:21.354Z,19.23
2019-04-26T04:11:21.376Z,19.23
2019-04-26T04:12:21.444Z,19.24
2019-04-26T04:13:21.317Z,19.15
2019-04-26T04:14:21.502Z,19.20
2019-04-26T04:15:21.297Z,19.17
2019-04-26T04:16:21.289Z,19.24
2019-04-26T04:17:21.294Z,19.13
2019-04-26T04:18:21.264Z,19.17
2019-04-26T04:19:21.270Z,19.16
2019-04-26T04:20:21.255Z,19.21
2019-04-26T04:21:21.231Z,19.15
2019-04-26T04:22:21.313Z,19.15
2019-04-26T04:23:21.214Z,19.25
2019-04-26T04:24:21.207Z,19.17
2019-04-26T04:25:21.187Z,19.21
2019-04-26T04:26:21.183Z,19.17
2019-04-26T04:27:21.167Z,19.24
2019-04-26T04:28:21.162Z,19.17
2019-04-26T04:29:21.155Z,19.20
2019-04-26T04:30:21.135Z,19.24
2019-04-26T04:31:21.205Z,19.17
2019-04-26T04:32:21.114Z,19.21
2019-04-26T04:33:21.102Z,19.16
2019-04-26T04:34:21.089Z,19.17
2019-04-26T04:35:21.099Z,19.16
2019-04-26T04:36:21.074Z,19.25
2019-04-26T04:37:21.059Z,19.24
2019-04-26T04:38:21.051Z,19.23
2019-04-26T04:39:21.044Z,19.21
2019-04-26T04:40:21.035Z,19.17
2019-04-26T04:41:21.152Z,19.23
2019-04-26T04:42:21.018Z,19.20
2019-04-26T04:43:21.132Z,19.23
2019-04-26T04:44:20.983Z,19.21
2019-04-26T04:45:20.990Z,19.24
2019-04-26T04:46:21.098Z,19.28
2019-04-26T04:47:25.590Z,19.28
2019-04-26T04:48:20.966Z,19.30
2019-04-26T04:49:20.928Z,19.31
2019-04-26T04:50:20.931Z,19.31
2019-04-26T04:51:20.912Z,19.34
2019-04-26T04:52:20.899Z,19.31
2019-04-26T04:53:20.890Z,19.30
2019-04-26T04:54:20.949Z,19.28
2019-04-26T04:55:20.874Z,19.31
2019-04-26T04:56:20.854Z,19.28
2019-04-26T04:57:20.848Z,19.30
2019-04-26T04:58:20.834Z,19.31
2019-04-26T04:59:20.822Z,19.24
2019-04-26T05:00:20.818Z,19.32
2019-04-26T05:01:20.799Z,19.31
2019-04-26T05:02:20.794Z,19.27
2019-04-26T05:03:20.778Z,19.27
2019-04-26T05:04:20.769Z,19.30
2019-04-26T05:05:20.782Z,19.32
2019-04-26T05:06:20.746Z,19.40
2019-04-26T05:07:20.733Z,19.39
2019-04-26T05:08:20.731Z,19.42
2019-04-26T05:09:20.712Z,19.49
2019-04-26T05:10:20.702Z,19.53
2019-04-26T05:11:20.703Z,19.61
2019-04-26T05:12:20.681Z,19.52
2019-04-26T05:13:20.671Z,19.50
2019-04-26T05:14:20.680Z,19.60
2019-04-26T05:15:20.649Z,19.60
2019-04-26T05:16:20.648Z,19.68
2019-04-26T05:17:20.628Z,19.80
2019-04-26T05:18:20.620Z,19.85
2019-04-26T05:19:20.612Z,19.82
2019-04-26T05:20:20.595Z,19.87
2019-04-26T05:21:20.597Z,19.87
2019-04-26T05:22:20.574Z,19.98
2019-04-26T05:23:20.562Z,19.97
2019-04-26T05:24:20.567Z,20.08
2019-04-26T05:25:20.552Z,20.01
2019-04-26T05:26:20.550Z,20.17
2019-04-26T05:27:20.521Z,20.20
2019-04-26T05:28:20.510Z,20.26
2019-04-26T05:29:20.498Z,20.35
2019-04-26T05:30:20.489Z,20.34
2019-04-26T05:31:20.494Z,20.48
2019-04-26T05:32:20.468Z,20.58
2019-04-26T05:33:20.455Z,20.69
2019-04-26T05:34:20.448Z,20.82
2019-04-26T05:35:20.437Z,20.82
2019-04-26T05:36:20.455Z,20.88
2019-04-26T05:37:20.417Z,20.88
2019-04-26T05:38:20.406Z,21.05
2019-04-26T05:39:20.396Z,21.19
2019-04-26T05:40:20.380Z,21.26
2019-04-26T05:41:20.380Z,21.24
2019-04-26T05:42:20.369Z,21.48
2019-04-26T05:43:20.347Z,21.58
2019-04-26T05:44:20.358Z,21.66
2019-04-26T05:45:20.331Z,21.81
2019-04-26T05:46:20.317Z,21.93
2019-04-26T05:47:20.326Z,22.05
2019-04-26T05:48:20.305Z,22.20
2019-04-26T05:49:27.670Z,22.29
2019-04-26T05:50:21.280Z,22.38
2019-04-26T05:51:20.264Z,22.45
2019-04-26T05:52:20.271Z,22.57
2019-04-26T05:53:20.248Z,22.48
2019-04-26T05:54:20.231Z,22.57
2019-04-26T05:55:20.219Z,22.74
2019-04-26T05:56:20.211Z,22.78
2019-04-26T05:57:20.215Z,22.74
2019-04-26T05:58:20.187Z,22.81
2019-04-26T05:59:20.183Z,22.85
2019-04-26T06:00:20.168Z,22.91
2019-04-26T06:01:20.155Z,23.03
2019-04-26T06:02:20.192Z,22.99
2019-04-26T06:03:20.134Z,23.04
2019-04-26T06:04:20.124Z,23.14
2019-04-26T06:05:20.112Z,22.97
2019-04-26T06:06:20.106Z,22.94
2019-04-26T06:07:20.092Z,23.01
2019-04-26T06:08:31.352Z,22.97
2019-04-26T06:09:20.072Z,22.94
2019-04-26T06:10:20.061Z,22.97
2019-04-26T06:11:20.050Z,22.97
2019-04-26T06:12:20.036Z,22.99
2019-04-26T06:13:20.036Z,22.99
2019-04-26T06:14:20.022Z,23.09
2019-04-26T06:15:20.008Z,23.09
2019-04-26T06:16:19.995Z,23.12
2019-04-26T06:17:19.984Z,23.14
2019-04-26T06:18:20.021Z,23.12
2019-04-26T06:19:19.961Z,23.14
2019-04-26T06:20:23.090Z,23.12
2019-04-26T06:21:19.946Z,23.21
2019-04-26T06:22:19.929Z,23.19
2019-04-26T06:23:19.931Z,23.32
2019-04-26T06:24:19.906Z,23.31
2019-04-26T06:25:19.903Z,23.23
2019-04-26T06:26:19.890Z,23.23
2019-04-26T06:27:19.875Z,23.25
2019-04-26T06:28:19.935Z,23.35
2019-04-26T06:29:19.868Z,23.34
2019-04-26T06:30:19.841Z,23.19
2019-04-26T06:31:19.834Z,23.32
2019-04-26T06:32:19.871Z,23.15
2019-04-26T06:33:19.834Z,23.19
2019-04-26T06:34:19.804Z,23.21
2019-04-26T06:35:20.298Z,23.29
2019-04-26T06:36:19.779Z,23.25
2019-04-26T06:37:19.767Z,23.35
2019-04-26T06:38:19.767Z,23.35
2019-04-26T06:39:19.747Z,23.31
2019-04-26T06:40:19.738Z,23.31
2019-04-26T06:41:21.550Z,23.34
2019-04-26T06:42:19.716Z,23.35
2019-04-26T06:43:19.890Z,23.42
2019-04-26T06:44:19.694Z,23.41
2019-04-26T06:45:19.683Z,23.41
2019-04-26T06:46:19.673Z,23.37
2019-04-26T06:47:19.665Z,23.38
2019-04-26T06:48:19.665Z,23.42
2019-04-26T06:49:19.641Z,23.47
2019-04-26T06:50:19.637Z,23.47
2019-04-26T06:51:24.862Z,23.38
2019-04-26T06:52:20.611Z,23.39
2019-04-26T06:53:19.623Z,23.37
2019-04-26T06:54:19.587Z,23.41
2019-04-26T06:55:19.577Z,23.29
2019-04-26T06:56:19.635Z,23.45
2019-04-26T06:57:19.561Z,23.41
2019-04-26T06:58:19.548Z,23.41
2019-04-26T06:59:19.545Z,23.47
2019-04-26T07:00:19.568Z,23.49
2019-04-26T07:01:19.542Z,23.54
2019-04-26T07:02:19.506Z,23.63
2019-04-26T07:03:19.493Z,23.72
2019-04-26T07:04:19.504Z,23.77
2019-04-26T07:05:19.470Z,23.84
2019-04-26T07:06:19.460Z,23.78
2019-04-26T07:07:19.452Z,23.86
2019-04-26T07:08:19.444Z,23.94
2019-04-26T07:09:19.436Z,23.93
2019-04-26T07:10:19.416Z,24.04
2019-04-26T07:11:19.407Z,23.94
2019-04-26T07:12:19.408Z,23.93
2019-04-26T07:13:19.399Z,24.00
2019-04-26T07:14:19.382Z,23.96
2019-04-26T07:15:28.347Z,24.02
2019-04-26T07:16:23.162Z,23.97
2019-04-26T07:17:19.341Z,23.94
2019-04-26T07:18:19.332Z,23.89
2019-04-26T07:19:19.332Z,23.87
2019-04-26T07:20:19.311Z,23.89
2019-04-26T07:21:19.301Z,23.90
2019-04-26T07:22:19.295Z,23.87
2019-04-26T07:23:19.310Z,23.89
2019-04-26T07:24:19.280Z,23.77
2019-04-26T07:25:19.261Z,23.78
2019-04-26T07:26:19.246Z,23.78
2019-04-26T07:27:19.241Z,23.81
2019-04-26T07:28:19.300Z,23.79
2019-04-26T07:29:19.237Z,23.74
2019-04-26T07:30:21.824Z,23.90
2019-04-26T07:31:19.200Z,23.79
2019-04-26T07:32:19.845Z,23.75
2019-04-26T07:33:19.171Z,23.81
2019-04-26T07:34:19.166Z,23.87
2019-04-26T07:35:19.157Z,23.89
2019-04-26T07:36:19.139Z,23.87
2019-04-26T07:37:19.160Z,23.96
2019-04-26T07:38:19.118Z,23.89
2019-04-26T07:39:20.734Z,23.92
2019-04-26T07:40:19.105Z,24.12
2019-04-26T07:41:19.116Z,24.16
2019-04-26T07:42:19.075Z,24.24
2019-04-26T07:43:19.064Z,24.27
2019-04-26T07:44:19.057Z,24.63
2019-04-26T07:45:19.054Z,24.67
2019-04-26T07:46:19.032Z,24.92
2019-04-26T07:47:19.023Z,24.92
2019-04-26T07:48:19.058Z,25.09
2019-04-26T07:49:19.009Z,25.26
2019-04-26T07:50:19.008Z,25.36
2019-04-26T07:51:18.984Z,25.35
2019-04-26T07:52:18.970Z,25.26
2019-04-26T07:53:18.976Z,25.22
2019-04-26T07:54:18.951Z,25.38
2019-04-26T07:55:19.127Z,25.45
2019-04-26T07:56:18.926Z,25.46
2019-04-26T07:57:18.924Z,25.48
2019-04-26T07:58:18.930Z,25.56
2019-04-26T07:59:18.902Z,25.49
2019-04-26T08:00:18.889Z,25.54
2019-04-26T08:01:18.883Z,25.64
2019-04-26T08:02:19.405Z,25.44
2019-04-26T08:03:18.856Z,25.46
2019-04-26T08:04:18.846Z,25.49
2019-04-26T08:05:18.832Z,25.44
2019-04-26T08:06:18.830Z,25.38
2019-04-26T08:07:18.817Z,25.38
2019-04-26T08:08:18.799Z,25.48
2019-04-26T08:09:26.842Z,25.45
2019-04-26T08:10:19.779Z,25.36
2019-04-26T08:11:18.775Z,25.34
2019-04-26T08:12:18.765Z,25.38
2019-04-26T08:13:18.750Z,25.26
2019-04-26T08:14:18.740Z,25.26
2019-04-26T08:15:18.728Z,25.26
2019-04-26T08:16:18.726Z,25.22
2019-04-26T08:17:18.705Z,25.22
2019-04-26T08:18:18.696Z,25.23
2019-04-26T08:19:18.695Z,25.20
2019-04-26T08:20:18.671Z,25.16
2019-04-26T08:21:19.368Z,25.14
2019-04-26T08:22:24.346Z,25.14
2019-04-26T08:23:37.836Z,25.23
2019-04-26T08:24:19.629Z,25.17
2019-04-26T08:25:18.621Z,25.22
2019-04-26T08:26:18.619Z,25.29
2019-04-26T08:27:23.082Z,25.22
2019-04-26T08:28:19.586Z,25.26
2019-04-26T08:29:18.578Z,25.26
2019-04-26T08:30:19.279Z,25.19
2019-04-26T08:31:20.031Z,25.12
2019-04-26T08:32:18.556Z,25.20
2019-04-26T08:33:18.536Z,25.12
2019-04-26T08:34:21.164Z,25.11
2019-04-26T08:35:21.737Z,25.09
2019-04-26T08:36:18.512Z,25.14
2019-04-26T08:37:19.288Z,25.05
2019-04-26T08:38:22.352Z,25.01
2019-04-26T08:39:18.471Z,25.05
2019-04-26T08:40:25.548Z,25.04
2019-04-26T08:41:19.480Z,25.07
2019-04-26T08:42:23.397Z,25.05
2019-04-26T08:43:20.198Z,25.04
2019-04-26T08:44:18.418Z,25.05
2019-04-26T08:45:19.552Z,25.04
2019-04-26T08:46:18.404Z,25.04
2019-04-26T08:47:24.524Z,25.04
2019-04-26T08:48:23.360Z,24.94
2019-04-26T08:49:19.368Z,24.94
2019-04-26T08:50:18.357Z,25.01
2019-04-26T08:51:20.669Z,25.12
2019-04-26T08:52:18.344Z,25.08
2019-04-26T08:53:18.323Z,25.09
2019-04-26T08:54:18.312Z,25.12
2019-04-26T08:55:18.305Z,25.08
2019-04-26T08:56:20.365Z,25.08
2019-04-26T08:57:18.290Z,25.12
2019-04-26T08:58:18.277Z,25.14
2019-04-26T08:59:18.259Z,25.12
2019-04-26T09:00:18.254Z,25.12
2019-04-26T09:01:18.249Z,25.09
2019-04-26T09:02:18.236Z,25.17
2019-04-26T09:03:18.222Z,25.14
2019-04-26T09:04:18.210Z,25.02
2019-04-26T09:05:18.204Z,25.04
2019-04-26T09:06:18.184Z,25.38
2019-04-26T09:07:18.194Z,25.59
2019-04-26T09:08:18.200Z,25.75
2019-04-26T09:09:19.758Z,25.83
2019-04-26T09:10:18.215Z,26.01
2019-04-26T09:11:25.894Z,26.13
2019-04-26T09:12:23.130Z,26.09
2019-04-26T09:13:18.120Z,26.27
2019-04-26T09:14:18.105Z,26.36
2019-04-26T09:15:18.097Z,26.38
2019-04-26T09:16:18.142Z,26.36
2019-04-26T09:17:18.078Z,26.28
2019-04-26T09:18:18.081Z,26.23
2019-04-26T09:19:18.049Z,26.13
2019-04-26T09:20:28.139Z,26.27
2019-04-26T09:21:19.271Z,26.20
2019-04-26T09:22:18.018Z,26.20
2019-04-26T09:23:18.015Z,26.16
2019-04-26T09:24:20.987Z,26.09
2019-04-26T09:25:18.983Z,26.19
2019-04-26T09:26:18.009Z,26.24
2019-04-26T09:27:20.939Z,26.27
2019-04-26T09:28:17.962Z,26.24
2019-04-26T09:29:17.944Z,26.27
2019-04-26T09:30:17.949Z,26.39
2019-04-26T09:31:19.624Z,26.51
2019-04-26T09:32:17.916Z,26.56
2019-04-26T09:33:17.981Z,26.56
2019-04-26T09:34:17.891Z,26.57
2019-04-26T09:35:17.893Z,26.56
2019-04-26T09:36:18.209Z,26.69
2019-04-26T09:37:17.858Z,26.97
2019-04-26T09:38:17.858Z,27.02
2019-04-26T09:39:17.836Z,26.94
2019-04-26T09:40:21.723Z,27.03
2019-04-26T09:41:17.816Z,26.98
2019-04-26T09:42:17.806Z,26.94
2019-04-26T09:43:17.826Z,26.96
2019-04-26T09:44:17.801Z,26.93
2019-04-26T09:45:17.773Z,26.79
2019-04-26T09:46:17.763Z,26.79
2019-04-26T09:47:17.752Z,26.69
2019-04-26T09:48:17.744Z,26.72
2019-04-26T09:49:17.789Z,26.64
2019-04-26T09:50:17.721Z,26.59
2019-04-26T09:51:17.711Z,26.50
2019-04-26T09:52:17.699Z,26.56
2019-04-26T09:53:17.689Z,26.57
2019-04-26T09:54:17.692Z,26.64
2019-04-26T09:55:17.669Z,26.59
2019-04-26T09:56:17.664Z,26.75
2019-04-26T09:57:17.646Z,26.86
2019-04-26T09:58:17.638Z,26.96
2019-04-26T09:59:17.637Z,26.91
2019-04-26T10:00:17.617Z,27.06
2019-04-26T10:01:19.722Z,27.11
2019-04-26T10:02:18.599Z,27.09
2019-04-26T10:03:17.585Z,27.03
2019-04-26T10:04:17.623Z,27.18
2019-04-26T10:05:22.011Z,27.42
2019-04-26T10:06:18.557Z,27.28
2019-04-26T10:07:17.544Z,27.28
2019-04-26T10:08:17.533Z,27.21
2019-04-26T10:09:21.332Z,27.23
2019-04-26T10:10:23.115Z,27.13
2019-04-26T10:11:17.504Z,27.12
2019-04-26T10:12:17.530Z,27.28
2019-04-26T10:13:17.480Z,27.20
2019-04-26T10:14:17.470Z,27.18
2019-04-26T10:15:17.467Z,27.05
2019-04-26T10:16:17.448Z,27.18
2019-04-26T10:17:17.595Z,27.23
2019-04-26T10:18:20.340Z,27.50
2019-04-26T10:19:18.416Z,27.48
2019-04-26T10:20:17.414Z,27.71
2019-04-26T10:21:17.429Z,28.09
2019-04-26T10:22:17.389Z,28.45
2019-04-26T10:23:17.377Z,28.73
2019-04-26T10:24:17.363Z,28.94
2019-04-26T10:25:17.364Z,28.85
2019-04-26T10:26:17.360Z,29.10
2019-04-26T10:27:17.332Z,29.39
2019-04-26T10:28:17.321Z,29.37
2019-04-26T10:29:17.311Z,29.57
2019-04-26T10:30:17.314Z,29.82
2019-04-26T10:31:18.431Z,29.89
2019-04-26T10:32:17.285Z,30.22
2019-04-26T10:33:17.274Z,30.28
2019-04-26T10:34:17.259Z,30.54
2019-04-26T10:35:21.189Z,30.64
2019-04-26T10:36:17.239Z,30.85
2019-04-26T10:37:17.227Z,30.86
2019-04-26T10:38:19.350Z,31.00
2019-04-26T10:39:18.209Z,31.15
2019-04-26T10:40:17.204Z,31.13
2019-04-26T10:41:17.195Z,31.37
2019-04-26T10:42:17.175Z,31.40
2019-04-26T10:43:17.167Z,31.49
2019-04-26T10:44:17.155Z,31.57
2019-04-26T10:45:17.157Z,31.78
2019-04-26T10:46:17.135Z,31.79
2019-04-26T10:47:17.128Z,31.98
2019-04-26T10:48:17.118Z,32.03
2019-04-26T10:49:20.440Z,32.02
2019-04-26T10:50:18.111Z,32.16
2019-04-26T10:51:17.089Z,32.32
2019-04-26T10:52:17.136Z,32.41
2019-04-26T10:53:17.062Z,32.53
2019-04-26T10:54:17.055Z,32.54
2019-04-26T10:55:17.481Z,32.56
2019-04-26T10:56:20.286Z,32.68
2019-04-26T10:57:18.041Z,32.72
2019-04-26T10:58:17.034Z,32.81
2019-04-26T10:59:17.001Z,32.84
2019-04-26T11:00:18.097Z,32.91
2019-04-26T11:01:17.021Z,32.99
2019-04-26T11:02:16.971Z,32.96
2019-04-26T11:03:16.964Z,33.05
2019-04-26T11:04:16.954Z,33.11
2019-04-26T11:05:19.216Z,33.17
2019-04-26T11:06:16.944Z,33.24
2019-04-26T11:07:16.925Z,33.38
2019-04-26T11:08:16.910Z,33.57
2019-04-26T11:09:16.917Z,33.63
2019-04-26T11:10:16.892Z,33.74
2019-04-26T11:11:16.889Z,33.72
2019-04-26T11:12:16.871Z,33.89
2019-04-26T11:13:16.860Z,34.00
2019-04-26T11:14:18.443Z,34.11
2019-04-26T11:15:17.841Z,34.26
2019-04-26T11:16:16.842Z,34.43
2019-04-26T11:17:17.809Z,34.43
2019-04-26T11:18:19.848Z,34.48
2019-04-26T11:19:17.801Z,34.84
2019-04-26T11:20:16.794Z,34.98
2019-04-26T11:21:20.975Z,35.09
2019-04-26T11:22:28.566Z,35.34
2019-04-26T11:23:17.760Z,35.46
2019-04-26T11:24:19.412Z,35.66
2019-04-26T11:25:16.741Z,35.87
2019-04-26T11:26:16.746Z,36.16
2019-04-26T11:27:16.730Z,36.19
2019-04-26T11:28:17.123Z,36.35
2019-04-26T11:29:16.703Z,36.31
2019-04-26T11:30:20.800Z,36.40
2019-04-26T11:31:16.728Z,36.59
2019-04-26T11:32:16.675Z,36.82
2019-04-26T11:33:16.680Z,37.04
2019-04-26T11:34:19.080Z,37.40
2019-04-26T11:35:17.663Z,37.60
2019-04-26T11:36:16.636Z,37.81
2019-04-26T11:37:17.803Z,37.87
2019-04-26T11:38:16.619Z,37.75
2019-04-26T11:39:16.629Z,37.66
2019-04-26T11:40:16.601Z,37.69
2019-04-26T11:41:16.596Z,37.53
2019-04-26T11:42:16.630Z,37.46
2019-04-26T11:43:19.522Z,37.28
2019-04-26T11:44:16.560Z,37.46
2019-04-26T11:45:16.587Z,37.31
2019-04-26T11:46:16.546Z,37.05
2019-04-26T11:47:16.541Z,36.43
2019-04-26T11:48:16.522Z,35.85
2019-04-26T11:49:16.516Z,35.18
2019-04-26T11:50:17.781Z,34.64
2019-04-26T11:51:16.496Z,33.94
2019-04-26T11:52:16.492Z,33.90
2019-04-26T11:53:16.474Z,33.97
2019-04-26T11:54:16.917Z,34.15
2019-04-26T11:55:16.454Z,34.00
2019-04-26T11:56:16.446Z,33.93
2019-04-26T11:57:16.454Z,33.79
2019-04-26T11:58:17.929Z,33.71
2019-04-26T11:59:17.416Z,33.65
2019-04-26T12:00:16.407Z,33.38
2019-04-26T12:01:16.396Z,33.07
2019-04-26T12:02:17.253Z,32.99
2019-04-26T12:03:16.376Z,32.87
2019-04-26T12:04:16.366Z,32.51
2019-04-26T12:05:16.357Z,32.35
2019-04-26T12:06:16.345Z,32.10
2019-04-26T12:07:16.344Z,31.99
2019-04-26T12:08:16.326Z,31.85
2019-04-26T12:09:16.317Z,31.53
2019-04-26T12:10:16.313Z,31.41
2019-04-26T12:11:18.583Z,31.16
2019-04-26T12:12:16.294Z,31.05
2019-04-26T12:13:16.300Z,30.96
2019-04-26T12:14:20.473Z,30.67
2019-04-26T12:15:29.477Z,30.56
2019-04-26T12:16:18.602Z,30.34
2019-04-26T12:17:16.529Z,30.25
2019-04-26T12:18:16.271Z,30.04
2019-04-26T12:19:18.265Z,29.84
2019-04-26T12:20:16.225Z,29.76
2019-04-26T12:21:16.194Z,29.63
2019-04-26T12:22:16.191Z,29.63
2019-04-26T12:23:20.794Z,29.33
2019-04-26T12:24:17.169Z,29.25
2019-04-26T12:25:16.150Z,29.26
2019-04-26T12:26:17.363Z,29.10
2019-04-26T12:27:17.226Z,29.02
2019-04-26T12:28:16.128Z,28.91
2019-04-26T12:29:16.121Z,28.76
2019-04-26T12:30:16.099Z,28.80
2019-04-26T12:31:16.092Z,28.77
2019-04-26T12:32:17.311Z,28.76
2019-04-26T12:33:16.079Z,28.76
2019-04-26T12:34:17.992Z,28.64
2019-04-26T12:35:16.048Z,28.64
2019-04-26T12:36:16.042Z,28.62
2019-04-26T12:37:19.930Z,28.61
2019-04-26T12:38:17.026Z,28.42
2019-04-26T12:39:16.021Z,28.46
2019-04-26T12:40:15.998Z,28.40
2019-04-26T12:41:17.170Z,28.46
2019-04-26T12:42:15.974Z,28.42
2019-04-26T12:43:20.009Z,28.35
2019-04-26T12:44:16.952Z,28.35
2019-04-26T12:45:16.646Z,28.30
2019-04-26T12:46:15.938Z,28.27
2019-04-26T12:47:15.921Z,28.14
2019-04-26T12:48:16.815Z,28.13
2019-04-26T12:49:15.900Z,28.05
2019-04-26T12:50:15.890Z,28.05
2019-04-26T12:51:15.879Z,28.08
2019-04-26T12:52:17.496Z,28.06